Time;durP1;ratioP1;P1;durP2;ratioP2;P2;SDS_P1;SDS_P2;PMS_P1;PMS_P2;Temp;Humidity;BMP_temperature;BMP_pressure;BME280_temperature;BME280_humidity;BME280_pressure;Samples;Min_cycle;Max_cycle;Signal;HPM_P1;HPM_P2
2021/01/10 00:00:23;;;;;;;1999.90;999.90;;;2.90;99.90;;;;;;5056423;28;20168;-61
2021/01/10 00:02:52;;;;;;;1999.90;999.90;;;2.90;99.90;;;;;;5056889;28;20259;-60
2021/01/10 00:05:23;;;;;;;1999.90;999.90;;;2.90;99.90;;;;;;5056442;28;20483;-62
2021/01/10 00:07:49;;;;;;;1999.90;999.90;;;2.90;99.90;;;;;;5056710;28;20632;-62
2021/01/10 00:10:15;;;;;;;1999.90;999.90;;;2.90;99.90;;;;;;5056230;28;20172;-62
2021/01/10 00:12:41;;;;;;;1999.90;999.90;;;2.80;99.90;;;;;;5056323;28;20184;-62
2021/01/10 00:15:10;;;;;;;1999.90;999.90;;;2.70;99.90;;;;;;5056065;28;20204;-62
2021/01/10 00:17:39;;;;;;;1999.90;999.90;;;2.50;99.90;;;;;;5056536;28;20539;-62
2021/01/10 00:20:09;;;;;;;1999.90;999.90;;;2.30;99.90;;;;;;5054334;28;20176;-63
2021/01/10 00:22:35;;;;;;;1999.90;999.90;;;2.10;99.90;;;;;;5053774;28;20245;-63
2021/01/10 00:25:01;;;;;;;1999.90;999.90;;;1.90;99.90;;;;;;5054570;28;20294;-62
2021/01/10 00:27:28;;;;;;;1999.90;999.90;;;1.90;99.90;;;;;;5053811;28;20604;-63
2021/01/10 00:29:53;;;;;;;1999.90;999.90;;;1.80;99.90;;;;;;5053777;28;20629;-63
2021/01/10 00:32:20;;;;;;;1999.90;999.90;;;1.80;99.90;;;;;;5054059;28;20175;-62
2021/01/10 00:34:46;;;;;;;1999.90;999.90;;;1.80;99.90;;;;;;5055079;28;21001;-62
2021/01/10 00:37:20;;;;;;;1999.90;999.90;;;1.80;99.90;;;;;;5055451;28;20176;-62
2021/01/10 00:39:47;;;;;;;1999.90;999.90;;;1.90;99.90;;;;;;5055708;28;20171;-60
2021/01/10 00:42:14;;;;;;;1999.90;999.90;;;2.00;99.90;;;;;;5055967;28;20203;-62
2021/01/10 00:44:41;;;;;;;1999.90;999.90;;;2.10;99.90;;;;;;5054580;28;20270;-62
2021/01/10 00:47:07;;;;;;;1999.90;999.90;;;2.20;99.90;;;;;;5053041;28;20164;-62
2021/01/10 00:49:32;;;;;;;1999.90;999.90;;;2.30;99.90;;;;;;5052870;28;20178;-62
2021/01/10 00:51:58;;;;;;;1999.90;999.90;;;2.40;99.90;;;;;;5053034;28;20414;-62
2021/01/10 00:54:24;;;;;;;1999.90;999.90;;;2.40;99.90;;;;;;5052868;28;20445;-62
2021/01/10 00:56:50;;;;;;;1999.90;999.90;;;2.50;99.90;;;;;;5052908;28;20442;-62
2021/01/10 00:59:15;;;;;;;1999.90;999.90;;;2.40;99.90;;;;;;5052872;28;20179;-62
2021/01/10 01:01:42;;;;;;;1999.90;999.90;;;2.40;99.90;;;;;;5052756;28;20295;-62
2021/01/10 01:04:07;;;;;;;1999.90;999.90;;;2.40;99.90;;;;;;5052695;28;20677;-62
2021/01/10 01:06:34;;;;;;;1999.90;999.90;;;2.40;99.90;;;;;;5052754;28;20176;-62
2021/01/10 01:08:59;;;;;;;1999.90;999.90;;;2.40;99.90;;;;;;5052161;28;20195;-62
2021/01/10 01:11:29;;;;;;;1999.90;999.90;;;2.30;99.90;;;;;;5052736;28;20203;-62
2021/01/10 01:13:55;;;;;;;1999.90;999.90;;;2.30;99.90;;;;;;5052613;28;20191;-62
2021/01/10 01:16:21;;;;;;;1999.90;999.90;;;2.10;99.90;;;;;;5052607;28;20208;-62
2021/01/10 01:18:46;;;;;;;1999.90;999.90;;;2.00;99.90;;;;;;5052506;28;20410;-62
2021/01/10 01:21:20;;;;;;;1999.90;999.90;;;1.90;99.90;;;;;;5052491;28;20446;-62
2021/01/10 01:23:50;;;;;;;1999.90;999.90;;;1.80;99.90;;;;;;5052396;28;20167;-62
2021/01/10 01:26:20;;;;;;;1999.90;999.90;;;1.70;99.90;;;;;;5052563;28;20186;-62
2021/01/10 01:28:47;;;;;;;1999.90;999.90;;;1.70;99.90;;;;;;5052216;28;20171;-62
2021/01/10 01:31:15;;;;;;;1999.90;999.90;;;1.60;99.90;;;;;;5052177;28;20184;-62
2021/01/10 01:33:42;;;;;;;1999.90;999.90;;;1.50;99.90;;;;;;5052130;28;20175;-62
2021/01/10 01:36:27;;;;;;;1999.90;999.90;;;1.40;99.90;;;;;;5052204;28;20179;-62
2021/01/10 01:38:55;;;;;;;1999.90;999.90;;;1.40;99.90;;;;;;5052155;28;20704;-62
2021/01/10 01:41:20;;;;;;;1999.90;999.90;;;1.30;99.90;;;;;;5052028;28;20668;-62
2021/01/10 01:43:47;;;;;;;1999.90;999.90;;;1.40;99.90;;;;;;5051929;28;20170;-62
2021/01/10 01:46:21;;;;;;;1999.90;999.90;;;1.40;99.90;;;;;;5052038;28;20398;-62
2021/01/10 01:48:47;;;;;;;1999.90;999.90;;;1.50;99.90;;;;;;5051771;28;20546;-62
2021/01/10 01:51:13;;;;;;;1999.90;999.90;;;1.60;99.90;;;;;;5051908;28;20250;-62
2021/01/10 01:53:40;;;;;;;1999.90;999.90;;;1.60;99.90;;;;;;5051851;28;20629;-62
2021/01/10 01:56:07;;;;;;;1999.90;999.90;;;1.70;99.90;;;;;;5051755;28;20257;-62
2021/01/10 01:58:33;;;;;;;1999.90;999.90;;;1.70;99.90;;;;;;5051624;28;20168;-62
2021/01/10 02:00:58;;;;;;;1999.90;999.90;;;1.70;99.90;;;;;;5051726;28;20186;-62
2021/01/10 02:03:41;;;;;;;1999.90;999.90;;;1.80;99.90;;;;;;5051547;28;20421;-62
2021/01/10 02:06:11;;;;;;;1999.90;999.90;;;1.70;99.90;;;;;;5051637;28;20175;-62
2021/01/10 02:08:38;;;;;;;1999.90;999.90;;;1.70;99.90;;;;;;5051368;28;20175;-62
2021/01/10 02:11:06;;;;;;;1999.90;999.90;;;1.70;99.90;;;;;;5051545;28;20163;-62
2021/01/10 02:13:34;;;;;;;1999.90;999.90;;;1.80;99.90;;;;;;5051356;28;20633;-62
2021/01/10 02:16:01;;;;;;;1999.90;999.90;;;1.90;99.90;;;;;;5051378;28;20164;-62
2021/01/10 02:18:30;;;;;;;1999.90;999.90;;;2.00;99.90;;;;;;5051450;28;20602;-62
2021/01/10 02:21:02;;;;;;;1999.90;999.90;;;2.00;99.90;;;;;;5050583;28;20202;-62
2021/01/10 02:23:30;;;;;;;1999.90;999.90;;;2.10;99.90;;;;;;5051329;28;20183;-62
2021/01/10 02:25:57;;;;;;;1999.90;999.90;;;2.20;99.90;;;;;;5051124;28;20270;-62
2021/01/10 02:28:25;;;;;;;1999.90;999.90;;;2.30;99.90;;;;;;5050971;28;20175;-62
2021/01/10 02:30:53;;;;;;;1999.90;999.90;;;2.40;99.90;;;;;;5051256;28;20795;-62
2021/01/10 02:33:36;;;;;;;1999.90;999.90;;;2.40;99.90;;;;;;5051283;28;20703;-62
2021/01/10 02:36:08;;;;;;;1999.90;999.90;;;2.50;99.90;;;;;;5051106;28;20163;-62
2021/01/10 02:39:20;;;;;;;1999.90;999.90;;;2.60;99.90;;;;;;5050884;28;20171;-62
2021/01/10 02:41:49;;;;;;;1999.90;999.90;;;2.60;99.90;;;;;;5006146;28;20222;-62
2021/01/10 02:44:18;;;;;;;1999.90;999.90;;;2.50;99.90;;;;;;5050908;28;20187;-62
2021/01/10 02:46:48;;;;;;;1999.90;999.90;;;2.40;99.90;;;;;;5051029;28;20191;-62
2021/01/10 02:49:14;;;;;;;1999.90;999.90;;;2.40;99.90;;;;;;5050761;28;20176;-62
2021/01/10 02:51:39;;;;;;;1999.90;999.90;;;2.40;99.90;;;;;;5050924;28;20203;-62
2021/01/10 02:54:05;;;;;;;1999.90;999.90;;;2.50;99.90;;;;;;5050810;28;20190;-62
2021/01/10 02:56:38;;;;;;;1999.90;999.90;;;2.50;99.90;;;;;;5050843;28;20176;-62
2021/01/10 02:59:05;;;;;;;1999.90;999.90;;;2.50;99.90;;;;;;5050770;28;20761;-62
2021/01/10 03:01:32;;;;;;;1999.90;999.90;;;2.60;99.90;;;;;;5050681;28;20248;-62
2021/01/10 03:03:59;;;;;;;1999.90;999.90;;;2.70;99.90;;;;;;5050732;28;20341;-62
2021/01/10 03:06:25;;;;;;;1999.90;999.90;;;2.70;99.90;;;;;;5050759;28;20179;-62
2021/01/10 03:08:51;;;;;;;1999.90;999.90;;;2.80;99.90;;;;;;5050499;28;20175;-62
2021/01/10 03:11:17;;;;;;;1999.90;999.90;;;2.90;99.90;;;;;;5050674;28;20172;-62
2021/01/10 03:13:43;;;;;;;1999.90;999.90;;;2.80;99.90;;;;;;5050626;28;20190;-62
2021/01/10 03:16:09;;;;;;;1999.90;999.90;;;2.80;99.90;;;;;;5050668;28;20168;-62
2021/01/10 03:18:34;;;;;;;1999.90;999.90;;;2.90;99.90;;;;;;5050673;28;20191;-62
2021/01/10 03:21:00;;;;;;;1999.90;999.90;;;2.90;99.90;;;;;;5050589;28;20438;-62
2021/01/10 03:23:25;;;;;;;1999.90;999.90;;;3.00;99.90;;;;;;5050727;28;20172;-62
2021/01/10 03:25:51;;;;;;;1999.90;999.90;;;3.00;99.90;;;;;;5050603;28;20203;-62
2021/01/10 03:28:17;;;;;;;1999.90;999.90;;;3.00;99.90;;;;;;5050368;28;20250;-62
2021/01/10 03:30:42;;;;;;;1999.90;999.90;;;3.00;99.90;;;;;;5051652;28;20250;-62
2021/01/10 03:33:08;;;;;;;1999.90;999.90;;;3.00;99.90;;;;;;5054599;28;20552;-62
2021/01/10 03:35:35;;;;;;;1999.90;999.90;;;3.00;99.90;;;;;;5054556;28;20195;-62
2021/01/10 03:38:07;;;;;;;1999.90;999.90;;;3.00;99.90;;;;;;5054562;28;20202;-62
2021/01/10 03:40:33;;;;;;;1999.90;999.90;;;3.00;99.90;;;;;;5054478;28;20180;-62
2021/01/10 03:42:59;;;;;;;1999.90;999.90;;;3.00;99.90;;;;;;5054334;28;20248;-62
2021/01/10 03:45:24;;;;;;;1999.90;999.90;;;3.00;99.90;;;;;;5054144;28;20237;-62
2021/01/10 03:47:50;;;;;;;1999.90;999.90;;;3.00;99.90;;;;;;5054277;28;20171;-62
2021/01/10 03:50:16;;;;;;;1999.90;999.90;;;3.00;99.90;;;;;;5054081;28;20536;-61
2021/01/10 03:52:42;;;;;;;1999.90;999.90;;;3.00;99.90;;;;;;5054143;28;20402;-62
2021/01/10 03:55:08;;;;;;;1999.90;999.90;;;2.90;99.90;;;;;;5054015;28;20241;-62
2021/01/10 03:57:38;;;;;;;1999.90;999.90;;;2.70;99.90;;;;;;5054017;28;20593;-62
2021/01/10 04:00:12;;;;;;;1999.90;999.90;;;2.50;99.90;;;;;;5053844;28;20410;-61
2021/01/10 04:02:38;;;;;;;1999.90;999.90;;;2.40;99.90;;;;;;5053921;28;20213;-61
2021/01/10 04:05:05;;;;;;;1999.90;999.90;;;2.40;99.90;;;;;;5053825;28;20285;-61
2021/01/10 04:07:31;;;;;;;1999.90;999.90;;;2.20;99.90;;;;;;5053735;28;20251;-61
2021/01/10 04:09:57;;;;;;;1999.90;999.90;;;2.00;99.90;;;;;;5053643;28;20187;-62
2021/01/10 04:12:23;;;;;;;1999.90;999.90;;;1.90;99.90;;;;;;5054057;28;20179;-62
2021/01/10 04:14:48;;;;;;;1999.90;999.90;;;1.90;99.90;;;;;;5053673;28;20188;-62
2021/01/10 04:17:14;;;;;;;1999.90;999.90;;;1.80;99.90;;;;;;5053647;28;20187;-61
2021/01/10 04:19:39;;;;;;;1999.90;999.90;;;1.70;99.90;;;;;;5053515;28;20170;-62
2021/01/10 04:22:05;;;;;;;1999.90;999.90;;;1.60;99.90;;;;;;5053462;28;20214;-62
2021/01/10 04:24:31;;;;;;;1999.90;999.90;;;1.60;99.90;;;;;;5053381;28;20744;-61
2021/01/10 04:26:56;;;;;;;1999.90;999.90;;;1.60;99.90;;;;;;5053505;28;20251;-62
2021/01/10 04:29:22;;;;;;;1999.90;999.90;;;1.50;99.90;;;;;;5053552;28;20504;-62
2021/01/10 04:31:49;;;;;;;1999.90;999.90;;;1.50;99.90;;;;;;5053766;28;20278;-62
2021/01/10 04:34:16;;;;;;;1999.90;999.90;;;1.50;99.90;;;;;;5053464;28;20590;-61
2021/01/10 04:36:42;;;;;;;1999.90;999.90;;;1.50;99.90;;;;;;5053450;28;20171;-62
2021/01/10 04:39:07;;;;;;;1999.90;999.90;;;1.40;99.90;;;;;;5053448;28;20207;-61
2021/01/10 04:41:34;;;;;;;1999.90;999.90;;;1.40;99.90;;;;;;5053229;28;20257;-61
2021/01/10 04:44:00;;;;;;;1999.90;999.90;;;1.40;99.90;;;;;;5052542;28;20199;-62
2021/01/10 04:46:28;;;;;;;1999.90;999.90;;;1.40;99.90;;;;;;5053156;28;20539;-61
2021/01/10 04:48:55;;;;;;;1999.90;999.90;;;1.40;99.90;;;;;;5052930;28;20160;-61
2021/01/10 04:51:24;;;;;;;1999.90;999.90;;;1.30;99.90;;;;;;5053171;28;20199;-61
2021/01/10 04:53:50;;;;;;;1999.90;999.90;;;1.30;99.90;;;;;;5053056;28;20183;-61
2021/01/10 04:56:19;;;;;;;1999.90;999.90;;;1.30;99.90;;;;;;5052984;28;20168;-62
2021/01/10 04:58:52;;;;;;;1999.90;999.90;;;1.30;99.90;;;;;;5052704;28;20247;-62
2021/01/10 05:01:22;;;;;;;1999.90;999.90;;;1.30;99.90;;;;;;5053020;28;20203;-62
2021/01/10 05:03:47;;;;;;;1999.90;999.90;;;1.20;99.90;;;;;;5052870;28;20213;-62
2021/01/10 05:06:15;;;;;;;1999.90;999.90;;;1.30;99.90;;;;;;5052768;28;20172;-62
2021/01/10 05:08:41;;;;;;;1999.90;999.90;;;1.30;99.90;;;;;;5052394;28;20168;-62
2021/01/10 05:11:06;;;;;;;1999.90;999.90;;;1.30;99.90;;;;;;5052695;28;20172;-62
2021/01/10 05:13:32;;;;;;;1999.90;999.90;;;1.30;99.90;;;;;;5052790;28;20195;-62
2021/01/10 05:15:59;;;;;;;1999.90;999.90;;;1.40;99.90;;;;;;5052781;28;20164;-62
2021/01/10 05:18:25;;;;;;;1999.90;999.90;;;1.40;99.90;;;;;;5053716;28;20222;-62
2021/01/10 05:20:54;;;;;;;1999.90;999.90;;;1.40;99.90;;;;;;5054482;28;20203;-62
2021/01/10 05:23:26;;;;;;;1999.90;999.90;;;1.30;99.90;;;;;;5054329;28;20208;-62
2021/01/10 05:26:07;;;;;;;1999.90;999.90;;;1.20;99.90;;;;;;5067536;22;20746;-67
2021/01/10 05:28:37;;;;;;;1999.90;999.90;;;1.00;99.90;;;;;;5052000;28;20195;-68
2021/01/10 05:31:08;;;;;;;1999.90;999.90;;;0.90;99.90;;;;;;5052204;28;20172;-68
2021/01/10 05:33:50;;;;;;;1999.90;999.90;;;0.90;99.90;;;;;;5052151;28;20186;-68
2021/01/10 05:36:36;;;;;;;1999.90;999.90;;;0.90;99.90;;;;;;5032425;28;20183;-68
2021/01/10 05:39:17;;;;;;;1999.90;999.90;;;0.90;99.90;;;;;;5031864;28;20590;-68
2021/01/10 05:41:52;;;;;;;1999.90;999.90;;;0.90;99.90;;;;;;5032400;28;20300;-68
2021/01/10 05:44:18;;;;;;;1999.90;999.90;;;0.90;99.90;;;;;;5032552;28;20179;-67
2021/01/10 05:46:44;;;;;;;1999.90;999.90;;;0.80;99.90;;;;;;5032901;28;20176;-67
2021/01/10 05:49:21;;;;;;;1999.90;999.90;;;0.80;99.90;;;;;;5032709;28;20164;-67
2021/01/10 05:51:48;;;;;;;1999.90;999.90;;;0.80;99.90;;;;;;5031995;28;20247;-67
2021/01/10 05:54:59;;;;;;;1999.90;999.90;;;0.80;99.90;;;;;;5030846;28;20228;-68
2021/01/10 05:57:26;;;;;;;1999.90;999.90;;;0.80;99.90;;;;;;5031532;28;20567;-68
2021/01/10 05:59:53;;;;;;;1999.90;999.90;;;0.80;99.90;;;;;;5031572;28;20164;-68
2021/01/10 06:02:28;;;;;;;1999.90;999.90;;;0.90;99.90;;;;;;5031677;28;20188;-68
2021/01/10 06:05:13;;;;;;;1999.90;999.90;;;0.80;99.90;;;;;;5031632;28;20734;-67
2021/01/10 06:07:40;;;;;;;1999.90;999.90;;;0.80;99.90;;;;;;5031956;28;20680;-68
2021/01/10 06:10:07;;;;;;;1999.90;999.90;;;0.70;99.90;;;;;;5031260;28;20259;-68
2021/01/10 06:12:34;;;;;;;1999.90;999.90;;;0.70;99.90;;;;;;5031573;28;20267;-68
2021/01/10 06:15:15;;;;;;;1999.90;999.90;;;0.70;99.90;;;;;;5031499;28;20192;-68
2021/01/10 06:17:47;;;;;;;1999.90;999.90;;;0.70;99.90;;;;;;5031498;28;20251;-68
2021/01/10 06:20:34;;;;;;;1999.90;999.90;;;0.80;99.90;;;;;;5031202;28;20182;-68
2021/01/10 06:23:02;;;;;;;1999.90;999.90;;;0.80;99.90;;;;;;5031312;28;20673;-68
2021/01/10 06:25:30;;;;;;;1999.90;999.90;;;0.90;99.90;;;;;;5031262;28;20218;-68
2021/01/10 06:28:02;;;;;;;1999.90;999.90;;;0.90;99.90;;;;;;5031326;28;20598;-67
2021/01/10 06:30:33;;;;;;;1999.90;999.90;;;0.80;99.90;;;;;;5031134;28;20175;-68
2021/01/10 06:33:02;;;;;;;1999.90;999.90;;;0.90;99.90;;;;;;5031429;28;20255;-67
2021/01/10 06:35:34;;;;;;;1999.90;999.90;;;0.90;99.90;;;;;;5031155;28;20216;-67
2021/01/10 06:38:02;;;;;;;1999.90;999.90;;;0.90;99.90;;;;;;5031416;28;20230;-67
2021/01/10 06:40:32;;;;;;;1999.90;999.90;;;1.00;99.90;;;;;;5031017;28;20242;-68
2021/01/10 06:43:03;;;;;;;1999.90;999.90;;;1.00;99.90;;;;;;5031350;28;20863;-68
2021/01/10 06:45:38;;;;;;;1999.90;999.90;;;1.10;99.90;;;;;;5031023;28;20271;-67
2021/01/10 06:48:04;;;;;;;1999.90;999.90;;;1.00;99.90;;;;;;5031107;28;20176;-68
2021/01/10 06:50:31;;;;;;;1999.90;999.90;;;1.10;99.90;;;;;;5030873;28;20229;-68
2021/01/10 06:53:09;;;;;;;1999.90;999.90;;;1.10;99.90;;;;;;5030921;28;20251;-68
2021/01/10 06:55:37;;;;;;;1999.90;999.90;;;1.10;99.90;;;;;;5031165;28;20565;-68
2021/01/10 06:58:11;;;;;;;1999.90;999.90;;;1.20;99.90;;;;;;5031028;28;20685;-68
2021/01/10 07:00:58;;;;;;;1999.90;999.90;;;1.20;99.90;;;;;;5031088;28;20172;-68
2021/01/10 07:03:28;;;;;;;1999.90;999.90;;;1.20;99.90;;;;;;5030910;28;20180;-68
2021/01/10 07:05:56;;;;;;;1999.90;999.90;;;1.20;99.90;;;;;;5033407;28;20195;-68
2021/01/10 07:08:42;;;;;;;1999.90;999.90;;;1.30;99.90;;;;;;5037322;28;20251;-68
2021/01/10 07:11:23;;;;;;;1999.90;999.90;;;1.20;99.90;;;;;;5037439;28;20218;-68
2021/01/10 07:13:55;;;;;;;1999.90;999.90;;;1.10;99.90;;;;;;5037338;28;20172;-68
2021/01/10 07:16:27;;;;;;;1999.90;999.90;;;1.20;99.90;;;;;;5037371;28;20692;-68
2021/01/10 07:18:55;;;;;;;1999.90;999.90;;;1.20;99.90;;;;;;5037336;28;20263;-68
2021/01/10 07:21:38;;;;;;;1999.90;999.90;;;1.30;99.90;;;;;;5037202;28;20283;-68
2021/01/10 07:24:12;;;;;;;1999.90;999.90;;;1.30;99.90;;;;;;5037253;28;20165;-67
2021/01/10 07:26:54;;;;;;;1999.90;999.90;;;1.20;99.90;;;;;;5037716;28;20156;-67
2021/01/10 07:29:42;;;;;;;1999.90;999.90;;;1.30;99.90;;;;;;5037209;28;20172;-67
2021/01/10 07:32:13;;;;;;;1999.90;999.90;;;1.40;99.90;;;;;;5037268;28;20183;-67
2021/01/10 07:34:44;;;;;;;1999.90;999.90;;;1.40;99.90;;;;;;5037059;28;20219;-67
2021/01/10 07:37:24;;;;;;;1999.90;999.90;;;1.50;99.90;;;;;;5037221;28;20544;-67
2021/01/10 07:39:57;;;;;;;1999.90;999.90;;;1.50;99.90;;;;;;5036977;28;20168;-68
2021/01/10 07:42:25;;;;;;;1999.90;999.90;;;1.60;99.90;;;;;;5037133;28;20229;-68
2021/01/10 07:44:59;;;;;;;1999.90;999.90;;;1.60;99.90;;;;;;5037020;28;20180;-68
2021/01/10 07:47:34;;;;;;;1999.90;999.90;;;1.70;99.90;;;;;;5037122;28;20222;-68
2021/01/10 07:50:05;;;;;;;1999.90;999.90;;;1.70;99.90;;;;;;5036950;28;20160;-68
2021/01/10 07:52:44;;;;;;;1999.90;999.90;;;1.70;99.90;;;;;;5037318;28;20556;-68
2021/01/10 07:55:18;;;;;;;1999.90;999.90;;;1.80;99.90;;;;;;5037100;28;20214;-68
2021/01/10 07:58:09;;;;;;;1999.90;999.90;;;1.90;99.90;;;;;;5036921;28;20167;-68
2021/01/10 08:00:49;;;;;;;1999.90;999.90;;;1.90;99.90;;;;;;5036403;28;20184;-68
2021/01/10 08:03:25;;;;;;;1999.90;999.90;;;1.90;99.90;;;;;;5036945;28;20227;-68
2021/01/10 08:05:58;;;;;;;1999.90;999.90;;;1.90;99.90;;;;;;5036859;28;20238;-68
2021/01/10 08:08:39;;;;;;;1999.90;999.90;;;2.10;99.90;;;;;;5036648;28;20191;-68
2021/01/10 08:11:05;;;;;;;1999.90;999.90;;;2.00;99.90;;;;;;5036842;28;20263;-68
2021/01/10 08:13:32;;;;;;;1999.90;999.90;;;2.00;99.90;;;;;;5036865;28;20247;-68
2021/01/10 08:15:59;;;;;;;1999.90;999.90;;;2.00;99.90;;;;;;5036860;28;20422;-67
2021/01/10 08:18:27;;;;;;;1999.90;999.90;;;2.00;99.90;;;;;;5033154;28;20165;-68
2021/01/10 08:20:54;;;;;;;1999.90;999.90;;;2.00;99.90;;;;;;5033852;28;20176;-68
2021/01/10 08:23:20;;;;;;;1999.90;999.90;;;2.10;99.90;;;;;;5033580;28;20750;-68
2021/01/10 08:25:47;;;;;;;1999.90;999.90;;;2.10;99.90;;;;;;5033522;28;20287;-68
2021/01/10 08:28:19;;;;;;;1999.90;999.90;;;2.10;99.90;;;;;;5033361;28;20407;-67
2021/01/10 08:30:45;;;;;;;1999.90;999.90;;;2.10;99.90;;;;;;5033384;28;20196;-68
2021/01/10 08:33:21;;;;;;;1999.90;999.90;;;2.10;99.90;;;;;;5033434;28;20219;-67
2021/01/10 08:35:47;;;;;;;1999.90;999.90;;;2.10;99.90;;;;;;5033206;28;20188;-68
2021/01/10 08:38:14;;;;;;;1999.90;999.90;;;2.20;99.90;;;;;;5033114;28;20177;-68
2021/01/10 08:40:40;;;;;;;1999.90;999.90;;;2.20;99.90;;;;;;5033288;28;20172;-68
2021/01/10 08:43:06;;;;;;;1999.90;999.90;;;2.20;99.90;;;;;;5033240;28;20224;-68
2021/01/10 08:45:32;;;;;;;1999.90;999.90;;;2.20;99.90;;;;;;5033129;28;20196;-68
2021/01/10 08:48:05;;;;;;;1999.90;999.90;;;2.30;99.90;;;;;;5033129;28;20172;-68
2021/01/10 08:50:40;;;;;;;1999.90;999.90;;;2.30;99.90;;;;;;5031858;28;20223;-68
2021/01/10 08:53:06;;;;;;;1999.90;999.90;;;2.40;99.90;;;;;;5033109;28;20176;-68
2021/01/10 08:55:39;;;;;;;1999.90;999.90;;;2.40;99.90;;;;;;5032939;28;20192;-68
2021/01/10 08:58:07;;;;;;;1999.90;999.90;;;2.50;99.90;;;;;;5032943;28;20442;-68
2021/01/10 09:00:34;;;;;;;1999.90;999.90;;;2.60;99.90;;;;;;5032923;28;20171;-68
2021/01/10 09:03:16;;;;;;;1999.90;999.90;;;2.70;99.90;;;;;;5032802;28;20201;-68
2021/01/10 09:05:44;;;;;;;1999.90;999.90;;;2.70;99.90;;;;;;5032763;28;20212;-68
2021/01/10 09:08:18;;;;;;;1999.90;999.90;;;2.70;99.90;;;;;;5032577;28;20634;-68
2021/01/10 09:10:51;;;;;;;1999.90;999.90;;;2.70;99.90;;;;;;5033000;28;20157;-68
2021/01/10 09:13:21;;;;;;;1999.90;999.90;;;2.80;99.90;;;;;;5032672;28;20183;-68
2021/01/10 09:15:47;;;;;;;1999.90;999.90;;;2.80;99.90;;;;;;5032678;28;20219;-68
2021/01/10 09:18:19;;;;;;;1999.90;999.90;;;3.00;99.90;;;;;;5032419;28;20180;-68
2021/01/10 09:21:00;;;;;;;1999.90;999.90;;;3.00;99.90;;;;;;5032559;28;20191;-68
2021/01/10 09:23:27;;;;;;;1999.90;999.90;;;2.90;99.90;;;;;;5032605;28;20573;-68
2021/01/10 09:25:53;;;;;;;1999.90;999.90;;;3.00;99.90;;;;;;5032455;28;20207;-68
2021/01/10 09:28:20;;;;;;;1999.90;999.90;;;3.00;99.90;;;;;;5032148;28;20247;-67
2021/01/10 09:30:48;;;;;;;1999.90;999.90;;;3.10;99.90;;;;;;5032445;28;20225;-67
2021/01/10 09:33:20;;;;;;;1999.90;999.90;;;3.00;99.90;;;;;;5032243;28;20168;-68
2021/01/10 09:35:47;;;;;;;1999.90;999.90;;;3.10;99.90;;;;;;5032278;28;20188;-68
2021/01/10 09:38:15;;;;;;;1999.90;999.90;;;3.10;99.90;;;;;;5031984;28;20172;-68
2021/01/10 09:41:02;;;;;;;1999.90;999.90;;;3.10;99.90;;;;;;5032380;28;20176;-68
2021/01/10 09:43:50;;;;;;;1999.90;999.90;;;3.20;99.90;;;;;;5032179;28;20176;-68
2021/01/10 09:46:30;;;;;;;1999.90;999.90;;;3.20;99.90;;;;;;5032400;28;20259;-68
2021/01/10 09:49:16;;;;;;;1999.90;999.90;;;3.20;99.90;;;;;;5031715;28;20168;-68
2021/01/10 09:51:44;;;;;;;1999.90;999.90;;;3.20;99.90;;;;;;5032165;28;20231;-67
2021/01/10 09:54:14;;;;;;;1999.90;999.90;;;3.30;99.90;;;;;;5031810;28;20566;-68
2021/01/10 09:56:40;;;;;;;1999.90;999.90;;;3.30;99.90;;;;;;5032194;28;20184;-68
2021/01/10 09:59:24;;;;;;;1999.90;999.90;;;3.50;99.90;;;;;;5031697;28;20225;-68
2021/01/10 10:01:52;;;;;;;1999.90;999.90;;;3.50;99.90;;;;;;5031763;28;20230;-68
2021/01/10 10:04:30;;;;;;;1999.90;999.90;;;3.50;99.90;;;;;;5031680;28;20243;-68
2021/01/10 10:06:56;;;;;;;1999.90;999.90;;;3.50;99.90;;;;;;5031838;28;20176;-68
2021/01/10 10:09:22;;;;;;;1999.90;999.90;;;3.50;99.90;;;;;;5032461;28;20165;-67
2021/01/10 10:11:49;;;;;;;1999.90;999.90;;;3.50;99.90;;;;;;5035684;28;20165;-67
2021/01/10 10:14:15;;;;;;;1999.90;999.90;;;3.50;99.90;;;;;;5035687;28;20434;-67
2021/01/10 10:16:41;;;;;;;1999.90;999.90;;;3.50;99.90;;;;;;5034448;28;20226;-67
2021/01/10 10:19:08;;;;;;;1999.90;999.90;;;3.50;99.90;;;;;;5026079;28;20638;-66
2021/01/10 10:21:34;;;;;;;1999.90;999.90;;;3.60;99.90;;;;;;5030059;28;20244;-66
2021/01/10 10:23:59;;;;;;;1999.90;999.90;;;3.70;99.90;;;;;;5029586;28;20642;-66
2021/01/10 10:26:25;;;;;;;1999.90;999.90;;;3.60;99.90;;;;;;5029404;28;20989;-67
2021/01/10 10:28:51;;;;;;;1999.90;999.90;;;3.70;99.90;;;;;;5029730;28;20168;-66
2021/01/10 10:31:16;;;;;;;1999.90;999.90;;;3.80;99.90;;;;;;5029761;28;20650;-65
2021/01/10 10:33:42;;;;;;;1999.90;999.90;;;3.70;99.90;;;;;;5029053;28;20175;-66
2021/01/10 10:36:08;;;;;;;1999.90;999.90;;;3.80;99.90;;;;;;5029726;28;20184;-66
2021/01/10 10:38:34;;;;;;;1999.90;999.90;;;3.70;99.90;;;;;;5029301;28;20437;-66
2021/01/10 10:41:00;;;;;;;1999.90;999.90;;;3.80;99.90;;;;;;5028585;28;20176;-66
2021/01/10 10:43:26;;;;;;;1999.90;999.90;;;3.90;99.90;;;;;;5029378;28;20246;-66
2021/01/10 10:45:52;;;;;;;1999.90;999.90;;;3.90;99.90;;;;;;5029461;28;20229;-66
2021/01/10 10:48:18;;;;;;;1999.90;999.90;;;4.00;99.90;;;;;;5028436;28;20245;-66
2021/01/10 10:50:44;;;;;;;1999.90;999.90;;;4.00;99.90;;;;;;5029435;28;20645;-66
2021/01/10 10:53:10;;;;;;;1999.90;999.90;;;4.20;99.90;;;;;;5029446;28;20169;-66
2021/01/10 10:55:36;;;;;;;1999.90;999.90;;;4.20;99.90;;;;;;5029071;28;20211;-69
2021/01/10 10:58:01;;;;;;;1999.90;999.90;;;4.20;99.90;;;;;;5029277;28;20259;-69
2021/01/10 11:00:27;;;;;;;1999.90;999.90;;;4.30;99.90;;;;;;5029288;28;20172;-68
2021/01/10 11:02:53;;;;;;;1999.90;999.90;;;4.30;99.90;;;;;;5029078;28;20200;-68
2021/01/10 11:05:22;;;;;;;1999.90;999.90;;;4.40;99.90;;;;;;5029536;28;20191;-68
2021/01/10 11:07:48;;;;;;;1999.90;999.90;;;4.40;99.90;;;;;;5029419;28;20208;-68
2021/01/10 11:10:13;;;;;;;1999.90;999.90;;;4.40;99.90;;;;;;5028709;28;20681;-68
2021/01/10 11:12:40;;;;;;;1999.90;999.90;;;4.30;99.90;;;;;;5029333;28;20840;-68
2021/01/10 11:15:07;;;;;;;1999.90;999.90;;;4.30;99.90;;;;;;5029318;28;20188;-65
2021/01/10 11:17:33;;;;;;;1999.90;999.90;;;4.30;99.90;;;;;;5028910;28;20188;-65
2021/01/10 11:19:58;;;;;;;1999.90;999.90;;;4.40;99.90;;;;;;5029109;28;20548;-65
2021/01/10 11:22:29;;;;;;;1999.90;999.90;;;4.40;99.90;;;;;;5029152;28;20196;-66
2021/01/10 11:24:55;;;;;;;1999.90;999.90;;;4.50;99.90;;;;;;5028932;28;20234;-67
2021/01/10 11:27:21;;;;;;;1999.90;999.90;;;4.50;99.90;;;;;;5029578;28;20169;-66
2021/01/10 11:29:47;;;;;;;1999.90;999.90;;;4.60;99.90;;;;;;5028891;28;20171;-66
2021/01/10 11:32:13;;;;;;;1999.90;999.90;;;4.60;99.90;;;;;;5028908;28;20191;-66
2021/01/10 11:34:38;;;;;;;1999.90;999.90;;;4.60;99.90;;;;;;5029101;28;20200;-65
2021/01/10 11:37:04;;;;;;;1999.90;999.90;;;4.70;99.90;;;;;;5029188;28;20176;-67
2021/01/10 11:39:30;;;;;;;1999.90;999.90;;;4.70;99.90;;;;;;5028917;28;20168;-66
2021/01/10 11:41:57;;;;;;;1999.90;999.90;;;4.60;99.90;;;;;;5029309;28;20999;-66
2021/01/10 11:44:24;;;;;;;1999.90;999.90;;;4.60;99.90;;;;;;5028888;28;20422;-68
2021/01/10 11:46:52;;;;;;;1999.90;999.90;;;4.70;99.90;;;;;;5029889;28;20164;-68
2021/01/10 11:49:19;;;;;;;1999.90;999.90;;;4.60;99.90;;;;;;5029832;28;20199;-67
2021/01/10 11:51:45;;;;;;;1999.90;999.90;;;4.60;99.90;;;;;;5029805;28;20189;-67
2021/01/10 11:54:15;;;;;;;1999.90;999.90;;;4.60;99.90;;;;;;5032047;28;20180;-65
2021/01/10 11:56:41;;;;;;;1999.90;999.90;;;4.60;99.90;;;;;;5033247;28;20633;-66
2021/01/10 11:59:07;;;;;;;1999.90;999.90;;;4.70;99.90;;;;;;5032200;28;20179;-67
2021/01/10 12:01:34;;;;;;;1999.90;999.90;;;4.70;99.90;;;;;;5032881;28;20200;-65
2021/01/10 12:04:01;;;;;;;1999.90;999.90;;;4.60;99.90;;;;;;5033231;28;20188;-65
2021/01/10 12:06:26;;;;;;;1999.90;999.90;;;4.70;99.90;;;;;;5031938;28;20239;-66
2021/01/10 12:08:52;;;;;;;1999.90;999.90;;;4.80;99.90;;;;;;5034001;28;20172;-65
2021/01/10 12:11:18;;;;;;;1999.90;999.90;;;4.70;99.90;;;;;;5034418;28;20164;-67
2021/01/10 12:13:44;;;;;;;1999.90;999.90;;;4.70;99.90;;;;;;5033131;28;20965;-68
2021/01/10 12:16:14;;;;;;;1999.90;999.90;;;4.90;99.90;;;;;;5032569;28;20227;-67
2021/01/10 12:18:41;;;;;;;1999.90;999.90;;;4.90;99.90;;;;;;5032709;28;20648;-67